Time;durP1;ratioP1;P1;durP2;ratioP2;P2;SDS_P1;SDS_P2;PMS_P1;PMS_P2;Temp;Humidity;BMP_temperature;BMP_pressure;BME280_temperature;BME280_humidity;BME280_pressure;Samples;Min_cycle;Max_cycle;Signal;HPM_P1;HPM_P2
2022/06/23 00:01:38;;;;;;;;;;;;;;;19.68;77.80;97697.28;5007746;28;19929;-60
2022/06/23 00:04:09;;;;;;;;;;;;;;;19.60;78.23;97694.44;5002668;28;19984;-60
2022/06/23 00:06:40;;;;;;;;;;;;;;;19.56;78.16;97699.09;5005504;28;19925;-58
2022/06/23 00:09:37;;;;;;;;;;;;;;;19.58;78.23;97695.94;5005673;28;19957;-59
2022/06/23 00:12:36;;;;;;;;;;;;;;;19.67;77.42;97698.44;5007238;28;19929;-59
2022/06/23 00:15:22;;;;;;;;;;;;;;;19.60;77.61;97693.63;4909097;29;19927;-60
2022/06/23 00:17:56;;;;;;;;;;;;;;;19.58;77.98;97695.94;4983216;28;19932;-58
2022/06/23 00:20:25;;;;;;;;;;;;;;;19.52;77.88;97700.19;5007556;28;19984;-59
2022/06/23 00:22:56;;;;;;;;;;;;;;;19.50;78.19;97692.31;5002461;28;19964;-59
2022/06/23 00:25:30;;;;;;;;;;;;;;;19.47;78.01;97695.03;5004890;28;20002;-59
2022/06/23 00:27:58;;;;;;;;;;;;;;;19.55;77.49;97699.47;5007438;28;20015;-60
2022/06/23 00:30:52;;;;;;;;;;;;;;;19.52;77.25;97691.94;5003668;28;20311;-58
2022/06/23 00:33:20;;;;;;;;;;;;;;;19.56;77.19;97695.53;5003204;28;19926;-60
2022/06/23 00:35:56;;;;;;;;;;;;;;;19.47;77.33;97695.03;5004806;28;19930;-58
2022/06/23 00:38:28;;;;;;;;;;;;;;;19.50;77.25;97694.28;5004749;28;20597;-60
2022/06/23 00:40:56;;;;;;;;;;;;;;;19.36;77.60;97695.69;5004364;28;19937;-59
2022/06/23 00:43:27;;;;;;;;;;;;;;;19.29;77.89;97692.84;5002875;28;19933;-59
2022/06/23 00:45:57;;;;;;;;;;;;;;;19.20;78.53;97700.59;5002521;28;19971;-59
2022/06/23 00:48:26;;;;;;;;;;;;;;;19.16;78.90;97699.75;5005554;28;19936;-59
2022/06/23 00:53:52;;;;;;;;;;;;;;;19.26;78.41;97707.34;5005925;28;19929;-58
2022/06/23 00:56:28;;;;;;;;;;;;;;;19.25;77.86;97705.78;5005603;28;19948;-58
2022/06/23 00:58:58;;;;;;;;;;;;;;;19.38;77.00;97707.09;5004069;28;20401;-59
2022/06/23 01:01:27;;;;;;;;;;;;;;;19.30;77.27;97710.97;5004616;28;19984;-60
2022/06/23 01:03:58;;;;;;;;;;;;;;;19.25;77.54;97711.28;5005167;28;19961;-59
2022/06/23 01:06:28;;;;;;;;;;;;;;;19.24;77.08;97709.69;5002102;28;20297;-59
2022/06/23 01:08:58;;;;;;;;;;;;;;;19.29;76.85;97712.13;5004267;28;19933;-57
2022/06/23 01:11:27;;;;;;;;;;;;;;;19.25;76.81;97716.00;5000641;28;19932;-58
2022/06/23 01:13:57;;;;;;;;;;;;;;;19.08;77.44;97703.56;4988299;28;20282;-59
2022/06/23 01:16:27;;;;;;;;;;;;;;;19.08;77.36;97704.38;5000171;28;19932;-59
2022/06/23 01:18:56;;;;;;;;;;;;;;;19.07;77.30;97704.75;5003696;28;19925;-58
2022/06/23 01:21:24;;;;;;;;;;;;;;;19.13;77.14;97710.72;5002161;28;19929;-60
2022/06/23 01:23:55;;;;;;;;;;;;;;;19.30;76.21;97713.72;5007071;28;19930;-58
2022/06/23 01:26:41;;;;;;;;;;;;;;;19.25;76.08;97711.28;4999341;28;19926;-57
2022/06/23 01:29:12;;;;;;;;;;;;;;;19.00;77.43;97710.94;5003621;28;19926;-59
2022/06/23 01:31:42;;;;;;;;;;;;;;;18.90;78.01;97714.31;5003997;28;19989;-59
2022/06/23 01:34:15;;;;;;;;;;;;;;;18.97;77.47;97710.91;4986140;28;19925;-56
2022/06/23 01:36:44;;;;;;;;;;;;;;;19.07;77.07;97716.56;5005197;28;20282;-59
2022/06/23 01:39:14;;;;;;;;;;;;;;;19.02;77.63;97714.13;5006508;28;20201;-59
2022/06/23 01:41:43;;;;;;;;;;;;;;;19.21;76.77;97710.44;5003809;28;19930;-59
2022/06/23 01:44:15;;;;;;;;;;;;;;;19.08;77.22;97706.34;5004599;28;19926;-59
2022/06/23 01:46:44;;;;;;;;;;;;;;;19.00;77.87;97701.88;5006489;28;19955;-59
2022/06/23 01:49:13;;;;;;;;;;;;;;;19.03;77.80;97703.91;5002443;28;20284;-58
2022/06/23 01:51:47;;;;;;;;;;;;;;;18.90;78.42;97716.28;5002325;28;20336;-59
2022/06/23 01:54:23;;;;;;;;;;;;;;;18.86;78.57;97710.75;5002741;28;19933;-60
2022/06/23 01:56:52;;;;;;;;;;;;;;;18.87;78.53;97712.31;5004198;28;19930;-60
2022/06/23 01:59:25;;;;;;;;;;;;;;;18.99;77.73;97714.06;5001876;28;20996;-60
2022/06/23 02:01:54;;;;;;;;;;;;;;;19.10;77.45;97720.50;5000839;28;20307;-55
2022/06/23 02:04:23;;;;;;;;;;;;;;;19.02;77.55;97718.84;4999286;28;20121;-57
2022/06/23 02:06:58;;;;;;;;;;;;;;;18.89;77.90;97721.00;5004675;28;19988;-59
2022/06/23 02:09:29;;;;;;;;;;;;;;;18.75;78.43;97713.34;5005472;28;19926;-59
2022/06/23 02:11:57;;;;;;;;;;;;;;;18.83;78.12;97708.72;5000640;28;19933;-57
2022/06/23 02:14:43;;;;;;;;;;;;;;;18.84;77.70;97716.59;5003072;28;20374;-59
2022/06/23 02:17:36;;;;;;;;;;;;;;;18.95;77.12;97713.22;5001902;28;19929;-57
2022/06/23 02:20:14;;;;;;;;;;;;;;;18.78;77.48;97718.06;5002591;28;19961;-59
2022/06/23 02:22:43;;;;;;;;;;;;;;;18.71;77.85;97719.94;5003627;28;20005;-60
2022/06/23 02:25:15;;;;;;;;;;;;;;;18.89;76.87;97721.00;5002699;28;19983;-58
2022/06/23 02:27:44;;;;;;;;;;;;;;;18.97;76.21;97728.19;5002755;28;19930;-57
2022/06/23 02:30:13;;;;;;;;;;;;;;;18.70;77.05;97718.34;4984238;28;20012;-59
2022/06/23 02:32:50;;;;;;;;;;;;;;;18.56;77.79;97721.63;5001463;28;19936;-59
2022/06/23 02:35:21;;;;;;;;;;;;;;;18.49;77.88;97719.56;5002282;28;19983;-59
2022/06/23 02:37:57;;;;;;;;;;;;;;;18.51;78.24;97710.94;5005567;28;19925;-60
2022/06/23 02:40:50;;;;;;;;;;;;;;;18.55;77.95;97714.53;4993364;28;19937;-60
2022/06/23 02:43:21;;;;;;;;;;;;;;;18.61;77.76;97715.03;4988644;28;20105;-60
2022/06/23 02:46:02;;;;;;;;;;;;;;;18.54;77.96;97715.72;4985971;28;19937;-60
2022/06/23 02:48:41;;;;;;;;;;;;;;;18.53;77.88;97714.09;4983440;28;19932;-59
2022/06/23 02:51:19;;;;;;;;;;;;;;;18.58;77.60;97725.59;4982217;28;20115;-59
2022/06/23 02:53:59;;;;;;;;;;;;;;;18.55;77.85;97722.78;4986400;28;19969;-59
2022/06/23 02:56:30;;;;;;;;;;;;;;;18.59;77.56;97729.94;4987477;28;20283;-58
2022/06/23 02:58:59;;;;;;;;;;;;;;;18.37;78.36;97735.44;4988548;28;20024;-58
2022/06/23 03:01:29;;;;;;;;;;;;;;;18.60;77.12;97728.00;4985673;28;19940;-58
2022/06/23 03:03:59;;;;;;;;;;;;;;;18.50;76.76;97731.34;4990305;28;20012;-60
2022/06/23 03:06:29;;;;;;;;;;;;;;;18.48;77.08;97733.66;4988225;28;19926;-58
2022/06/23 03:08:59;;;;;;;;;;;;;;;18.42;76.92;97729.63;4986269;28;19929;-58
2022/06/23 03:14:35;;;;;;;;;;;;;;;18.20;77.65;97726.50;4987036;28;19926;-60
2022/06/23 03:17:05;;;;;;;;;;;;;;;18.20;77.45;97733.97;4985997;28;20032;-56
2022/06/23 03:19:39;;;;;;;;;;;;;;;18.23;77.46;97727.75;4984448;28;20039;-59
2022/06/23 03:22:14;;;;;;;;;;;;;;;18.26;76.89;97721.50;4983571;28;19926;-60
2022/06/23 03:24:43;;;;;;;;;;;;;;;18.27;76.37;97737.66;4986185;28;20323;-59
2022/06/23 03:27:14;;;;;;;;;;;;;;;18.19;76.96;97735.13;4986170;28;20246;-58
2022/06/23 03:29:45;;;;;;;;;;;;;;;18.20;76.58;97740.25;4983787;28;19930;-59
2022/06/23 03:32:14;;;;;;;;;;;;;;;18.20;76.56;97737.50;4986496;28;20418;-60
2022/06/23 03:34:44;;;;;;;;;;;;;;;18.18;76.50;97744.56;4984842;28;20073;-58
2022/06/23 03:37:15;;;;;;;;;;;;;;;17.98;77.33;97743.78;4985269;28;20798;-60
2022/06/23 03:42:30;;;;;;;;;;;;;;;17.94;77.30;97756.66;4988289;28;19988;-60
2022/06/23 03:44:59;;;;;;;;;;;;;;;18.12;76.21;97751.50;4987190;28;19930;-60
2022/06/23 03:47:32;;;;;;;;;;;;;;;17.98;76.29;97755.56;4985648;28;20006;-58
2022/06/23 03:50:02;;;;;;;;;;;;;;;17.99;76.63;97756.38;4987115;28;20523;-59
2022/06/23 03:52:33;;;;;;;;;;;;;;;18.06;76.20;97760.06;4987352;28;19933;-60
2022/06/23 03:55:02;;;;;;;;;;;;;;;18.25;75.30;97748.22;4985775;28;19926;-59
2022/06/23 03:57:31;;;;;;;;;;;;;;;18.08;75.98;97765.19;4989275;28;19925;-59
2022/06/23 04:00:12;;;;;;;;;;;;;;;17.99;76.40;97761.84;4989440;28;19929;-59
2022/06/23 04:02:40;;;;;;;;;;;;;;;18.29;75.25;97759.28;4986565;28;20262;-59
2022/06/23 04:05:11;;;;;;;;;;;;;;;18.17;75.99;97767.72;4984383;28;20086;-59
2022/06/23 04:07:45;;;;;;;;;;;;;;;18.08;76.29;97772.63;4969927;28;19925;-59
2022/06/23 04:10:14;;;;;;;;;;;;;;;17.90;77.09;97781.34;4990193;28;19929;-60
2022/06/23 04:13:30;;;;;;;;;;;;;;;18.22;75.99;97770.97;4987360;28;20270;-59
2022/06/23 04:16:01;;;;;;;;;;;;;;;18.36;75.51;97761.34;4987543;28;19930;-59
2022/06/23 04:18:30;;;;;;;;;;;;;;;18.35;75.61;97768.81;4987384;28;20394;-59
2022/06/23 04:20:59;;;;;;;;;;;;;;;18.34;75.51;97772.72;4987575;28;20025;-59
2022/06/23 04:23:29;;;;;;;;;;;;;;;18.32;75.62;97772.28;4986779;28;20008;-58
2022/06/23 04:25:58;;;;;;;;;;;;;;;18.38;75.70;97772.81;4972439;28;20397;-60
2022/06/23 04:28:27;;;;;;;;;;;;;;;18.67;74.49;97779.59;4983575;28;19934;-59
2022/06/23 04:30:56;;;;;;;;;;;;;;;18.59;74.85;97778.69;4987812;28;19929;-58
2022/06/23 04:33:25;;;;;;;;;;;;;;;18.72;74.60;97774.59;4987784;28;20002;-59
2022/06/23 04:35:54;;;;;;;;;;;;;;;18.86;74.03;97776.00;4984607;28;20303;-56
2022/06/23 04:38:25;;;;;;;;;;;;;;;18.56;75.06;97768.41;4984555;28;20017;-56
2022/06/23 04:40:57;;;;;;;;;;;;;;;18.60;75.54;97783.00;4984318;28;19930;-59
2022/06/23 04:43:28;;;;;;;;;;;;;;;18.74;74.87;97786.03;4984506;28;19926;-59
2022/06/23 04:45:57;;;;;;;;;;;;;;;18.80;74.84;97790.06;4983240;28;19999;-57
2022/06/23 04:48:28;;;;;;;;;;;;;;;18.80;75.11;97789.25;4984006;28;20016;-59
2022/06/23 04:53:57;;;;;;;;;;;;;;;19.15;73.75;97797.28;4986690;28;19937;-59
2022/06/23 04:56:40;;;;;;;;;;;;;;;19.09;73.81;97802.31;4986685;28;20327;-59
2022/06/23 05:02:17;;;;;;;;;;;;;;;19.16;73.85;97801.63;4980215;28;19926;-59
2022/06/23 05:04:45;;;;;;;;;;;;;;;18.97;74.60;97804.50;4987625;28;19930;-58
2022/06/23 05:07:18;;;;;;;;;;;;;;;18.91;74.89;97805.94;4986288;28;19956;-60
2022/06/23 05:09:46;;;;;;;;;;;;;;;19.07;74.37;97803.88;4985216;28;20009;-57
2022/06/23 05:15:13;;;;;;;;;;;;;;;18.98;75.14;97808.84;4982747;28;19934;-57
2022/06/23 05:17:42;;;;;;;;;;;;;;;19.21;74.02;97804.06;4983487;28;20030;-58
2022/06/23 05:20:17;;;;;;;;;;;;;;;19.21;74.11;97809.56;4984439;28;20397;-58
2022/06/23 05:22:46;;;;;;;;;;;;;;;19.34;74.07;97810.97;4981993;28;20031;-59
2022/06/23 05:25:24;;;;;;;;;;;;;;;19.26;74.11;97812.00;4981238;28;19934;-58
2022/06/23 05:27:54;;;;;;;;;;;;;;;19.27;73.75;97802.59;4983959;28;19934;-59
2022/06/23 05:33:21;;;;;;;;;;;;;;;19.22;74.39;97816.66;4985480;28;19930;-58
2022/06/23 05:35:50;;;;;;;;;;;;;;;19.38;74.09;97814.53;4981657;28;19987;-59
2022/06/23 05:38:24;;;;;;;;;;;;;;;19.66;72.92;97823.63;4983183;28;20027;-60
2022/06/23 05:40:53;;;;;;;;;;;;;;;19.60;73.61;97829.47;4994093;28;19927;-58
2022/06/23 05:43:22;;;;;;;;;;;;;;;19.90;72.49;97825.91;5003013;28;19941;-58
2022/06/23 05:45:52;;;;;;;;;;;;;;;19.56;73.82;97823.09;5003186;28;20057;-57
2022/06/23 05:48:21;;;;;;;;;;;;;;;19.62;73.56;97831.84;5003438;28;19926;-58
2022/06/23 05:50:50;;;;;;;;;;;;;;;19.69;73.48;97833.91;5004903;28;19929;-58
2022/06/23 05:53:44;;;;;;;;;;;;;;;19.87;73.06;97823.91;5004014;28;20027;-57
2022/06/23 05:56:13;;;;;;;;;;;;;;;19.85;73.38;97823.47;5003930;28;19929;-58
2022/06/23 05:59:04;;;;;;;;;;;;;;;19.94;73.18;97818.47;5005611;28;19926;-61
2022/06/23 06:01:32;;;;;;;;;;;;;;;20.02;72.81;97825.66;4999874;28;19932;-59
2022/06/23 06:04:02;;;;;;;;;;;;;;;19.93;73.39;97827.13;5003151;28;20024;-56
2022/06/23 06:06:33;;;;;;;;;;;;;;;20.01;73.35;97828.81;5003356;28;20341;-58
2022/06/23 06:11:58;;;;;;;;;;;;;;;20.37;72.14;97836.31;5003024;28;19926;-57
2022/06/23 06:17:21;;;;;;;;;;;;;;;20.18;72.65;97838.44;4999145;28;19929;-57
2022/06/23 06:19:55;;;;;;;;;;;;;;;20.44;71.68;97837.56;5002005;28;20314;-57
2022/06/23 06:22:27;;;;;;;;;;;;;;;20.30;72.18;97839.00;4999567;28;19926;-58
2022/06/23 06:24:55;;;;;;;;;;;;;;;20.40;71.86;97840.31;4998977;28;20420;-57
2022/06/23 06:27:23;;;;;;;;;;;;;;;20.56;71.20;97838.13;5001171;28;19929;-57
2022/06/23 06:29:53;;;;;;;;;;;;;;;20.61;70.94;97839.72;5006836;28;20075;-58
2022/06/23 06:32:31;;;;;;;;;;;;;;;20.69;70.52;97829.56;5001294;28;19929;-58
2022/06/23 06:35:01;;;;;;;;;;;;;;;20.64;70.65;97827.94;5006928;28;19929;-57
2022/06/23 06:37:35;;;;;;;;;;;;;;;20.81;69.70;97824.56;5005752;28;19936;-58
2022/06/23 06:40:04;;;;;;;;;;;;;;;20.86;69.26;97821.44;5005317;28;20230;-57
2022/06/23 06:42:33;;;;;;;;;;;;;;;20.86;69.71;97823.41;5004356;28;19933;-58
2022/06/23 06:45:07;;;;;;;;;;;;;;;20.94;69.34;97825.06;5007005;28;19926;-57
2022/06/23 06:47:36;;;;;;;;;;;;;;;21.06;69.01;97829.50;4987875;28;19925;-58
2022/06/23 06:50:16;;;;;;;;;;;;;;;21.19;68.42;97830.78;5006228;28;19932;-54
2022/06/23 06:52:44;;;;;;;;;;;;;;;21.25;67.84;97839.50;5004021;28;20289;-58
2022/06/23 06:55:12;;;;;;;;;;;;;;;21.35;67.44;97831.31;5007364;28;20042;-57
2022/06/23 06:57:41;;;;;;;;;;;;;;;21.40;66.61;97830.16;5007356;28;20444;-58
2022/06/23 07:00:12;;;;;;;;;;;;;;;21.50;66.17;97834.19;5006403;28;20004;-58
2022/06/23 07:02:40;;;;;;;;;;;;;;;21.52;64.56;97834.59;5003285;28;20342;-58
2022/06/23 07:05:20;;;;;;;;;;;;;;;21.57;64.20;97835.03;5006407;28;19930;-59
2022/06/23 07:07:51;;;;;;;;;;;;;;;21.68;65.99;97832.34;5002682;28;19948;-58
2022/06/23 07:16:32;;;;;;;;;;;;;;;22.07;63.78;97823.41;5006336;28;19933;-55
2022/06/23 07:19:03;;;;;;;;;;;;;;;22.03;63.39;97823.41;5004829;28;20340;-58
2022/06/23 07:21:38;;;;;;;;;;;;;;;22.12;62.93;97832.16;5004253;28;20354;-59
2022/06/23 07:24:12;;;;;;;;;;;;;;;22.26;61.31;97827.84;5005158;28;21120;-58
2022/06/23 07:26:42;;;;;;;;;;;;;;;22.24;61.71;97825.47;5005931;28;19940;-56
2022/06/23 07:29:13;;;;;;;;;;;;;;;22.28;62.11;97839.34;5004608;28;20006;-58
2022/06/23 07:31:47;;;;;;;;;;;;;;;22.41;62.17;97826.72;4989245;28;20033;-58
2022/06/23 07:34:15;;;;;;;;;;;;;;;22.52;61.77;97823.97;5002764;28;19941;-59
2022/06/23 07:36:50;;;;;;;;;;;;;;;22.57;62.22;97818.03;5004363;28;19945;-58
2022/06/23 07:39:43;;;;;;;;;;;;;;;22.62;61.71;97825.97;5005445;28;19936;-58
2022/06/23 07:42:13;;;;;;;;;;;;;;;22.68;60.95;97818.84;5007411;28;19978;-58
2022/06/23 07:44:42;;;;;;;;;;;;;;;22.81;58.73;97833.91;5003987;28;20012;-58
2022/06/23 07:47:12;;;;;;;;;;;;;;;22.94;58.92;97826.03;5003858;28;20039;-58
2022/06/23 07:49:40;;;;;;;;;;;;;;;22.93;58.38;97825.25;5004382;28;20430;-59
2022/06/23 07:52:08;;;;;;;;;;;;;;;22.86;59.29;97830.75;5003457;28;20043;-58
2022/06/23 07:54:36;;;;;;;;;;;;;;;22.88;58.78;97830.38;5003804;28;19945;-58
2022/06/23 07:57:04;;;;;;;;;;;;;;;23.00;57.54;97829.97;5001806;28;19980;-58
2022/06/23 07:59:33;;;;;;;;;;;;;;;23.12;57.38;97823.28;5005130;28;19956;-59
2022/06/23 08:02:03;;;;;;;;;;;;;;;23.16;57.77;97824.03;5003067;28;19948;-59
2022/06/23 08:04:56;;;;;;;;;;;;;;;23.31;56.73;97820.06;5004774;28;20275;-59
2022/06/23 08:07:26;;;;;;;;;;;;;;;23.36;56.05;97816.91;5003791;28;19956;-59
2022/06/23 08:09:57;;;;;;;;;;;;;;;23.27;56.17;97819.28;5005818;28;19925;-59
2022/06/23 08:18:05;;;;;;;;;;;;;;;23.18;58.31;97819.69;5002302;28;20011;-59
2022/06/23 08:20:35;;;;;;;;;;;;;;;23.12;57.90;97810.22;5004135;28;20016;-59
2022/06/23 08:23:05;;;;;;;;;;;;;;;23.29;57.61;97813.38;5004084;28;20116;-59
2022/06/23 08:25:34;;;;;;;;;;;;;;;23.50;57.22;97814.13;5000487;28;19925;-58
2022/06/23 08:28:02;;;;;;;;;;;;;;;23.53;56.09;97813.31;5005962;28;19934;-59
2022/06/23 08:30:32;;;;;;;;;;;;;;;23.65;55.35;97803.00;5003082;28;20061;-55
2022/06/23 08:33:01;;;;;;;;;;;;;;;23.70;55.10;97799.81;5003616;28;19941;-58
2022/06/23 08:35:30;;;;;;;;;;;;;;;23.91;53.54;97805.28;5002555;28;20000;-59
2022/06/23 08:38:23;;;;;;;;;;;;;;;23.88;54.74;97806.09;5004278;28;19930;-57
2022/06/23 08:40:58;;;;;;;;;;;;;;;23.89;53.75;97802.13;5002844;28;19925;-57
2022/06/23 08:43:28;;;;;;;;;;;;;;;23.96;54.32;97807.66;5003226;28;20020;-59
2022/06/23 08:45:56;;;;;;;;;;;;;;;24.15;54.67;97811.16;5004708;28;19926;-59
2022/06/23 08:48:26;;;;;;;;;;;;;;;24.33;53.05;97806.28;5002248;28;19936;-60
2022/06/23 08:50:55;;;;;;;;;;;;;;;24.40;52.32;97799.97;5004710;28;20370;-58
2022/06/23 08:53:25;;;;;;;;;;;;;;;24.55;50.78;97798.66;5001422;28;19980;-58
2022/06/23 08:55:54;;;;;;;;;;;;;;;24.60;50.97;97789.88;5001650;28;20335;-56
2022/06/23 08:58:25;;;;;;;;;;;;;;;24.38;51.74;97786.47;5001956;28;20342;-58
2022/06/23 09:00:57;;;;;;;;;;;;;;;24.39;51.63;97793.59;5003944;28;19936;-59
2022/06/23 09:03:26;;;;;;;;;;;;;;;24.33;52.16;97786.84;5003420;28;19941;-60
2022/06/23 09:05:56;;;;;;;;;;;;;;;24.58;51.11;97783.97;5004641;28;19930;-59
2022/06/23 09:08:24;;;;;;;;;;;;;;;24.75;50.68;97787.81;5003892;28;20051;-59
2022/06/23 09:11:14;;;;;;;;;;;;;;;24.83;51.86;97792.13;5002364;28;20187;-60
2022/06/23 09:14:12;;;;;;;;;;;;;;;24.89;50.61;97782.13;4993726;28;19945;-59
2022/06/23 09:16:52;;;;;;;;;;;;;;;24.78;50.83;97778.66;5003862;28;20032;-58
2022/06/23 09:19:24;;;;;;;;;;;;;;;24.98;50.19;97782.47;5001644;28;20223;-59
2022/06/23 09:22:37;;;;;;;;;;;;;;;24.90;49.32;97786.50;5001883;28;19929;-60
2022/06/23 09:25:08;;;;;;;;;;;;;;;24.92;49.88;97784.09;4986512;28;20418;-59
2022/06/23 09:27:42;;;;;;;;;;;;;;;24.83;51.15;97786.56;5002325;28;19948;-58
2022/06/23 09:30:13;;;;;;;;;;;;;;;24.72;51.05;97785.84;4999449;28;19949;-55
2022/06/23 09:32:52;;;;;;;;;;;;;;;24.49;51.97;97787.19;5003850;28;19934;-58
2022/06/23 09:35:26;;;;;;;;;;;;;;;24.38;52.70;97783.69;5003657;28;19940;-58
2022/06/23 09:38:12;;;;;;;;;;;;;;;24.47;53.10;97784.03;4992410;28;19941;-58
2022/06/23 09:40:43;;;;;;;;;;;;;;;24.55;52.67;97779.22;5005208;28;19970;-57
2022/06/23 09:43:28;;;;;;;;;;;;;;;24.44;52.39;97775.72;5001983;28;19977;-59
2022/06/23 09:46:00;;;;;;;;;;;;;;;24.62;51.38;97770.06;5002918;28;20039;-60
2022/06/23 09:48:35;;;;;;;;;;;;;;;24.78;51.02;97779.44;5003185;28;19945;-59
2022/06/23 09:51:06;;;;;;;;;;;;;;;24.96;50.19;97768.19;5003558;28;19925;-60
2022/06/23 09:54:26;;;;;;;;;;;;;;;25.06;49.53;97761.75;5000664;28;20381;-56
2022/06/23 09:57:26;;;;;;;;;;;;;;;25.14;49.88;97759.72;5004642;28;19936;-61
2022/06/23 10:00:04;;;;;;;;;;;;;;;25.03;50.32;97756.19;5002282;28;19980;-60
2022/06/23 10:02:52;;;;;;;;;;;;;;;25.15;49.21;97752.19;5005309;28;20293;-60
2022/06/23 10:05:34;;;;;;;;;;;;;;;25.10;49.32;97750.63;5007004;28;19929;-60
2022/06/23 10:08:17;;;;;;;;;;;;;;;24.94;50.48;97753.91;5011896;28;19973;-59
2022/06/23 10:11:10;;;;;;;;;;;;;;;24.91;50.76;97751.16;5010066;28;20361;-59
2022/06/23 10:14:04;;;;;;;;;;;;;;;24.74;51.20;97748.13;5005962;28;20029;-57
2022/06/23 10:17:20;;;;;;;;;;;;;;;24.69;51.38;97748.56;5005390;28;19940;-60
2022/06/23 10:19:55;;;;;;;;;;;;;;;24.95;50.00;97744.38;5009589;28;19945;-60
2022/06/23 10:22:35;;;;;;;;;;;;;;;25.10;49.86;97733.16;5007017;28;20350;-60
2022/06/23 10:25:12;;;;;;;;;;;;;;;25.28;49.15;97742.09;5007645;28;20743;-60
2022/06/23 10:27:46;;;;;;;;;;;;;;;25.40;48.83;97746.34;5008634;28;20407;-60
2022/06/23 10:34:00;;;;;;;;;;;;;;;25.41;49.12;97732.03;5005148;28;20290;-60
2022/06/23 10:36:38;;;;;;;;;;;;;;;25.73;47.71;97733.66;5006062;28;20056;-59
2022/06/23 10:39:19;;;;;;;;;;;;;;;25.82;47.60;97736.72;5007291;28;19929;-59
2022/06/23 10:41:51;;;;;;;;;;;;;;;25.61;47.52;97730.19;5008456;28;20025;-59
2022/06/23 10:44:24;;;;;;;;;;;;;;;25.63;47.31;97726.22;5007598;28;20032;-57
2022/06/23 10:46:55;;;;;;;;;;;;;;;25.64;46.79;97727.81;5009762;28;19980;-52
2022/06/23 10:49:42;;;;;;;;;;;;;;;25.56;46.94;97727.88;5009771;28;19929;-56
2022/06/23 10:52:37;;;;;;;;;;;;;;;25.52;46.74;97723.56;5007452;28;20360;-54
2022/06/23 10:55:11;;;;;;;;;;;;;;;25.84;46.63;97717.66;5007344;28;19933;-57
2022/06/23 10:57:45;;;;;;;;;;;;;;;25.91;45.68;97720.31;5007648;28;19937;-58
2022/06/23 11:00:13;;;;;;;;;;;;;;;25.89;45.89;97717.19;5007588;28;19933;-60
2022/06/23 11:03:02;;;;;;;;;;;;;;;25.97;45.92;97707.50;5009074;28;20300;-60
2022/06/23 11:05:36;;;;;;;;;;;;;;;26.05;45.37;97702.66;5005758;28;20032;-59
2022/06/23 11:08:08;;;;;;;;;;;;;;;26.04;44.77;97707.41;5009947;28;19936;-60
2022/06/23 11:10:55;;;;;;;;;;;;;;;26.02;45.94;97704.25;5008166;28;19937;-60
2022/06/23 11:13:27;;;;;;;;;;;;;;;25.99;47.01;97710.66;5006341;28;20095;-59
2022/06/23 11:18:59;;;;;;;;;;;;;;;26.19;46.21;97698.84;5005866;28;19926;-59
2022/06/23 11:21:29;;;;;;;;;;;;;;;26.00;45.80;97695.56;5003311;28;19939;-57
2022/06/23 11:24:00;;;;;;;;;;;;;;;26.12;45.75;97697.75;5006778;28;20017;-60
2022/06/23 11:26:35;;;;;;;;;;;;;;;26.31;44.62;97701.06;5004353;28;19937;-59
2022/06/23 11:29:22;;;;;;;;;;;;;;;26.24;45.80;97703.94;5006299;28;19934;-65
2022/06/23 11:31:52;;;;;;;;;;;;;;;26.28;45.51;97693.56;5006034;28;19941;-66
2022/06/23 11:34:34;;;;;;;;;;;;;;;26.29;44.65;97686.78;5003971;28;19992;-65
2022/06/23 11:37:18;;;;;;;;;;;;;;;26.38;45.08;97687.81;5003431;28;20024;-64
2022/06/23 11:39:58;;;;;;;;;;;;;;;26.13;46.13;97682.63;5004489;28;19932;-58
2022/06/23 11:42:38;;;;;;;;;;;;;;;25.95;46.63;97672.97;5005621;28;19960;-63
2022/06/23 11:45:12;;;;;;;;;;;;;;;26.02;46.86;97673.63;5005903;28;19976;-65
2022/06/23 11:47:45;;;;;;;;;;;;;;;26.07;46.88;97672.38;5003209;28;19932;-66
2022/06/23 11:50:14;;;;;;;;;;;;;;;26.18;46.47;97669.44;5004285;28;19973;-65
2022/06/23 11:52:50;;;;;;;;;;;;;;;26.38;46.00;97675.91;5005911;28;20177;-65
2022/06/23 11:55:23;;;;;;;;;;;;;;;26.46;44.79;97666.22;5006368;28;19987;-63
2022/06/23 11:58:07;;;;;;;;;;;;;;;26.45;45.66;97663.88;5004327;28;20236;-54
2022/06/23 12:00:40;;;;;;;;;;;;;;;26.57;45.28;97658.47;4986130;28;19929;-65
2022/06/23 12:03:13;;;;;;;;;;;;;;;26.77;44.88;97652.19;5003861;28;19967;-51
2022/06/23 12:05:44;;;;;;;;;;;;;;;26.70;45.59;97652.31;5006216;28;19926;-65
2022/06/23 12:08:27;;;;;;;;;;;;;;;26.75;44.87;97654.63;5004471;28;20153;-64
2022/06/23 12:10:57;;;;;;;;;;;;;;;26.85;43.90;97653.63;4987127;28;19925;-64
2022/06/23 12:13:25;;;;;;;;;;;;;;;26.91;43.54;97646.34;4984654;28;19925;-66
2022/06/23 12:15:59;;;;;;;;;;;;;;;26.83;44.06;97640.09;5004176;28;19926;-60
2022/06/23 12:18:28;;;;;;;;;;;;;;;27.03;44.37;97648.50;5004911;28;20372;-65
2022/06/23 12:20:57;;;;;;;;;;;;;;;27.22;43.29;97643.38;5003086;28;19984;-66
2022/06/23 12:23:29;;;;;;;;;;;;;;;27.15;43.94;97639.53;4982429;28;20374;-64
2022/06/23 12:26:00;;;;;;;;;;;;;;;27.13;43.65;97641.97;5002951;28;19968;-64
2022/06/23 12:28:55;;;;;;;;;;;;;;;26.81;43.88;97633.41;5000057;28;20473;-64
2022/06/23 12:31:27;;;;;;;;;;;;;;;26.73;44.59;97629.16;4985359;28;19933;-66
2022/06/23 12:33:59;;;;;;;;;;;;;;;26.83;44.16;97622.59;5003536;28;20369;-60
2022/06/23 12:36:28;;;;;;;;;;;;;;;26.69;44.81;97622.88;5006572;28;19978;-57
2022/06/23 12:38:57;;;;;;;;;;;;;;;26.70;45.70;97619.66;5004195;28;20361;-64
2022/06/23 12:41:26;;;;;;;;;;;;;;;26.89;44.95;97609.75;5003051;28;19926;-65
2022/06/23 12:43:56;;;;;;;;;;;;;;;26.69;44.55;97601.38;5005626;28;20286;-66
2022/06/23 12:46:29;;;;;;;;;;;;;;;26.45;44.97;97614.53;4997839;28;19953;-64
2022/06/23 12:49:19;;;;;;;;;;;;;;;26.34;45.48;97608.31;5003401;28;20414;-62
2022/06/23 12:51:53;;;;;;;;;;;;;;;26.38;44.94;97603.47;5007226;28;20393;-65
2022/06/23 12:54:28;;;;;;;;;;;;;;;26.53;44.89;97604.84;5005380;28;20341;-65
2022/06/23 12:57:00;;;;;;;;;;;;;;;26.47;45.45;97600.16;5005879;28;20000;-65
2022/06/23 12:59:29;;;;;;;;;;;;;;;26.40;45.80;97601.03;5004641;28;19941;-59
2022/06/23 13:01:59;;;;;;;;;;;;;;;26.39;45.64;97591.91;5002462;28;19926;-64
2022/06/23 13:04:29;;;;;;;;;;;;;;;26.47;45.20;97589.81;5003189;28;19941;-61
2022/06/23 13:07:01;;;;;;;;;;;;;;;26.62;45.92;97588.34;5003724;28;20369;-65
2022/06/23 13:09:31;;;;;;;;;;;;;;;26.82;44.48;97587.59;4986935;28;20270;-64
2022/06/23 13:12:20;;;;;;;;;;;;;;;26.70;44.44;97591.00;5005638;28;19925;-64
2022/06/23 13:14:49;;;;;;;;;;;;;;;26.61;44.27;97583.97;5002475;28;20037;-64
2022/06/23 13:17:25;;;;;;;;;;;;;;;26.56;44.96;97586.47;5003166;28;19937;-64
2022/06/23 13:19:55;;;;;;;;;;;;;;;26.72;43.85;97577.44;5004235;28;20301;-63
2022/06/23 13:22:43;;;;;;;;;;;;;;;26.87;43.31;97575.94;5001421;28;19929;-63
2022/06/23 13:25:14;;;;;;;;;;;;;;;26.85;44.26;97570.81;5002408;28;20397;-65
2022/06/23 13:27:44;;;;;;;;;;;;;;;27.00;44.00;97571.28;5004641;28;19926;-65
2022/06/23 13:30:35;;;;;;;;;;;;;;;27.09;44.15;97568.75;5002248;28;19937;-60
2022/06/23 13:33:06;;;;;;;;;;;;;;;27.01;44.20;97566.53;5000814;28;20489;-63
2022/06/23 13:35:35;;;;;;;;;;;;;;;27.19;43.49;97561.38;5004583;28;19956;-64
2022/06/23 13:38:12;;;;;;;;;;;;;;;27.17;43.53;97557.47;5003502;28;19944;-62
2022/06/23 13:40:43;;;;;;;;;;;;;;;27.00;43.81;97553.78;5002340;28;20391;-65
2022/06/23 13:43:13;;;;;;;;;;;;;;;26.85;43.86;97551.28;4994081;28;19941;-64
2022/06/23 13:45:42;;;;;;;;;;;;;;;26.86;44.08;97543.72;5001057;28;20025;-65
2022/06/23 13:48:14;;;;;;;;;;;;;;;27.27;42.54;97546.09;5000577;28;20397;-54
2022/06/23 13:50:44;;;;;;;;;;;;;;;27.42;42.83;97544.53;5006923;28;20144;-64
2022/06/23 13:53:15;;;;;;;;;;;;;;;27.38;43.36;97545.84;5003350;28;20075;-66
2022/06/23 13:55:44;;;;;;;;;;;;;;;27.44;42.91;97548.91;5004512;28;20195;-60
2022/06/23 13:58:13;;;;;;;;;;;;;;;27.25;43.13;97542.16;5003006;28;19948;-64
2022/06/23 14:00:42;;;;;;;;;;;;;;;27.38;44.20;97548.66;5000949;28;20265;-65
2022/06/23 14:03:11;;;;;;;;;;;;;;;27.55;42.12;97539.09;5001556;28;20400;-54
2022/06/23 14:05:42;;;;;;;;;;;;;;;27.66;41.86;97534.03;5005290;28;19929;-63
2022/06/23 14:08:36;;;;;;;;;;;;;;;27.76;41.03;97535.03;5001432;28;19925;-57